createdAt,value
2018-03-08T00:02:01.376Z,24.63
2018-03-08T00:04:28.888Z,24.60
2018-03-08T00:06:56.429Z,24.60
2018-03-08T00:09:23.948Z,24.00
2018-03-08T00:11:51.477Z,24.67
2018-03-08T00:14:18.990Z,24.27
2018-03-08T00:16:47.288Z,24.33
2018-03-08T00:19:14.801Z,23.07
2018-03-08T00:21:42.339Z,23.40
2018-03-08T00:24:09.863Z,24.70
2018-03-08T00:26:37.409Z,22.90
2018-03-08T00:29:04.933Z,22.73
2018-03-08T00:31:32.599Z,23.37
2018-03-08T00:34:00.890Z,22.37
2018-03-08T00:36:28.419Z,22.90
2018-03-08T00:38:55.929Z,23.80
2018-03-08T00:41:23.463Z,24.80
2018-03-08T00:43:51.092Z,23.20
2018-03-08T00:46:18.628Z,22.70
2018-03-08T00:48:46.166Z,22.93
2018-03-08T00:51:13.711Z,23.60
2018-03-08T00:53:41.238Z,24.13
2018-03-08T00:56:08.767Z,24.70
2018-03-08T00:58:36.285Z,24.57
2018-03-08T01:01:03.808Z,25.30
2018-03-08T01:03:31.345Z,24.30
2018-03-08T01:05:58.860Z,25.97
2018-03-08T01:08:26.389Z,25.40
2018-03-08T01:10:53.902Z,26.90
2018-03-08T01:13:21.437Z,26.47
2018-03-08T01:15:48.954Z,26.53
2018-03-08T01:18:16.501Z,27.33
2018-03-08T01:20:44.026Z,28.87
2018-03-08T01:23:11.562Z,28.10
2018-03-08T01:25:39.077Z,27.00
2018-03-08T01:28:06.613Z,28.00
2018-03-08T01:30:34.128Z,28.63
2018-03-08T01:33:01.658Z,27.87
2018-03-08T01:35:29.182Z,28.83
2018-03-08T01:37:56.721Z,27.47
2018-03-08T01:40:24.248Z,27.33
2018-03-08T01:42:52.553Z,27.77
2018-03-08T01:45:20.069Z,29.53
2018-03-08T01:47:47.602Z,29.27
2018-03-08T01:50:15.113Z,28.23
2018-03-08T01:52:43.428Z,27.83
2018-03-08T01:55:10.948Z,28.83
2018-03-08T01:57:39.241Z,27.37
2018-03-08T02:00:06.762Z,28.70
2018-03-08T02:02:34.294Z,27.57
2018-03-08T02:05:01.822Z,27.57
2018-03-08T02:07:30.116Z,26.37
2018-03-08T02:09:57.635Z,26.53
2018-03-08T02:12:25.156Z,26.77
2018-03-08T02:14:52.670Z,25.93
2018-03-08T02:17:20.196Z,24.53
2018-03-08T02:19:47.729Z,25.10
2018-03-08T02:22:15.252Z,24.90
2018-03-08T02:24:42.786Z,24.27
2018-03-08T02:27:10.326Z,22.07
2018-03-08T02:29:38.609Z,21.57
2018-03-08T02:32:06.160Z,18.90
2018-03-08T02:34:34.456Z,19.93
2018-03-08T02:37:01.989Z,17.63
2018-03-08T02:39:30.265Z,16.80
2018-03-08T02:41:58.570Z,16.63
2018-03-08T02:44:26.082Z,16.67
2018-03-08T02:46:53.609Z,13.87
2018-03-08T02:49:21.118Z,12.57
2018-03-08T02:51:48.624Z,10.23
2018-03-08T02:54:16.156Z,10.10
2018-03-08T02:56:43.669Z,8.07
2018-03-08T02:59:11.216Z,8.03
2018-03-08T03:01:38.723Z,7.87
2018-03-08T03:04:06.245Z,6.97
2018-03-08T03:06:33.743Z,6.60
2018-03-08T03:09:01.265Z,6.27
2018-03-08T03:11:28.775Z,6.07
2018-03-08T03:13:56.304Z,5.60
2018-03-08T03:16:24.612Z,5.60
2018-03-08T03:18:52.145Z,5.43
2018-03-08T03:21:19.646Z,4.90
2018-03-08T03:23:47.179Z,5.00
2018-03-08T03:26:14.685Z,5.07
2018-03-08T03:28:42.990Z,4.70
2018-03-08T03:31:10.485Z,4.70
2018-03-08T03:33:38.009Z,4.73
2018-03-08T03:36:05.524Z,5.00
2018-03-08T03:38:33.068Z,5.17
2018-03-08T03:41:00.582Z,5.43
2018-03-08T03:43:28.111Z,5.57
2018-03-08T03:45:55.613Z,5.90
2018-03-08T03:48:23.158Z,5.50
2018-03-08T03:50:50.659Z,5.40
2018-03-08T03:53:18.189Z,5.73
2018-03-08T03:55:45.694Z,5.90
2018-03-08T03:58:13.223Z,6.40
2018-03-08T04:00:40.730Z,6.70
2018-03-08T04:03:09.030Z,7.47
2018-03-08T04:05:36.536Z,6.70
2018-03-08T04:08:04.057Z,7.83
2018-03-08T04:10:32.337Z,7.63
2018-03-08T04:12:59.866Z,8.73
2018-03-08T04:15:27.375Z,9.00
2018-03-08T04:17:54.907Z,8.60
2018-03-08T04:20:22.419Z,9.70
2018-03-08T04:22:50.708Z,10.83
2018-03-08T04:25:18.990Z,10.30
2018-03-08T04:27:46.518Z,9.73
2018-03-08T04:30:14.034Z,10.20
2018-03-08T04:32:41.570Z,10.77
2018-03-08T04:35:09.077Z,10.00
2018-03-08T04:37:36.613Z,11.33
2018-03-08T04:40:04.140Z,11.73
2018-03-08T04:42:31.664Z,12.40
2018-03-08T04:44:59.170Z,13.07
2018-03-08T04:47:26.702Z,13.17
2018-03-08T04:49:54.240Z,14.33
2018-03-08T04:52:21.778Z,14.23
2018-03-08T04:54:49.305Z,14.63
2018-03-08T04:57:16.812Z,13.63
2018-03-08T04:59:44.342Z,15.53
2018-03-08T05:02:25.461Z,14.93
2018-03-08T05:04:53.752Z,15.33
2018-03-08T05:07:21.256Z,16.40
2018-03-08T05:09:48.786Z,16.60
2018-03-08T05:12:16.296Z,16.57
2018-03-08T05:14:44.598Z,18.57
2018-03-08T05:17:12.104Z,17.67
2018-03-08T05:19:39.633Z,20.30
2018-03-08T05:22:07.145Z,19.27
2018-03-08T05:24:34.722Z,19.47
2018-03-08T05:27:02.233Z,19.47
2018-03-08T05:29:29.932Z,23.27
2018-03-08T05:31:57.520Z,22.00
2018-03-08T05:34:25.054Z,21.67
2018-03-08T05:36:53.366Z,22.10
2018-03-08T05:39:21.008Z,22.17
2018-03-08T05:41:49.116Z,21.50
2018-03-08T05:44:16.787Z,23.40
2018-03-08T05:46:44.496Z,23.97
2018-03-08T05:49:12.992Z,24.63
2018-03-08T05:51:40.520Z,24.23
2018-03-08T05:54:08.818Z,24.90
2018-03-08T05:56:36.342Z,26.77
2018-03-08T05:59:03.872Z,26.03
2018-03-08T06:01:31.388Z,25.97
2018-03-08T06:03:58.926Z,26.13
2018-03-08T06:06:27.231Z,26.60
2018-03-08T06:08:55.406Z,27.13
2018-03-08T06:11:22.936Z,26.13
2018-03-08T06:13:51.251Z,27.10
2018-03-08T06:16:18.765Z,28.63
2018-03-08T06:18:47.088Z,29.27
2018-03-08T06:23:47.116Z,29.17
2018-03-08T06:26:14.656Z,29.93
2018-03-08T06:28:42.943Z,30.27
2018-03-08T06:33:43.520Z,30.60
2018-03-08T06:36:11.033Z,31.57
2018-03-08T06:38:38.573Z,31.03
2018-03-08T06:41:06.876Z,32.23
2018-03-08T06:43:34.405Z,31.17
2018-03-08T06:46:02.700Z,31.53
2018-03-08T06:48:30.236Z,34.43
2018-03-08T06:51:02.509Z,33.20
2018-03-08T06:53:30.825Z,32.47
2018-03-08T06:55:58.356Z,32.53
2018-03-08T06:58:25.889Z,32.03
2018-03-08T07:00:53.408Z,31.60
2018-03-08T07:03:20.936Z,32.00
2018-03-08T07:05:48.490Z,32.07
2018-03-08T07:08:16.026Z,29.23
2018-03-08T07:10:43.609Z,28.33
2018-03-08T07:13:11.168Z,28.53
2018-03-08T07:15:38.701Z,27.67
2018-03-08T07:18:06.228Z,27.70
2018-03-08T07:20:33.765Z,28.73
2018-03-08T07:23:01.291Z,28.87
2018-03-08T07:25:28.824Z,27.40
2018-03-08T07:27:56.329Z,29.10
2018-03-08T07:30:24.301Z,28.60
2018-03-08T07:32:51.817Z,29.10
2018-03-08T07:35:19.361Z,29.83
2018-03-08T07:37:46.878Z,29.60
2018-03-08T07:40:14.417Z,29.10
2018-03-08T07:42:41.925Z,31.20
2018-03-08T07:45:09.471Z,29.07
2018-03-08T07:47:36.979Z,26.13
2018-03-08T07:50:05.282Z,24.63
2018-03-08T07:52:32.795Z,25.67
2018-03-08T07:55:00.336Z,25.30
2018-03-08T07:57:27.859Z,24.23
2018-03-08T07:59:55.405Z,23.30
2018-03-08T08:02:22.926Z,23.23
2018-03-08T08:05:02.366Z,23.20
2018-03-08T08:07:42.476Z,23.70
2018-03-08T08:10:10.038Z,21.37
2018-03-08T08:12:37.558Z,19.70
2018-03-08T08:15:05.097Z,20.30
2018-03-08T08:17:33.381Z,20.93
2018-03-08T08:20:01.689Z,20.43
2018-03-08T08:22:29.218Z,20.43
2018-03-08T08:24:56.782Z,20.63
2018-03-08T08:27:25.060Z,20.93
2018-03-08T08:29:52.605Z,21.77
2018-03-08T08:32:20.898Z,21.50
2018-03-08T08:37:21.307Z,20.63
2018-03-08T08:39:48.851Z,21.57
2018-03-08T08:42:16.374Z,20.00
2018-03-08T08:44:43.910Z,20.00
2018-03-08T08:47:11.709Z,20.00
2018-03-08T08:49:39.264Z,20.17
2018-03-08T08:52:06.801Z,20.13
2018-03-08T08:54:34.396Z,20.53
2018-03-08T08:57:01.903Z,20.73
2018-03-08T08:59:30.230Z,18.40
2018-03-08T09:01:57.740Z,18.43
2018-03-08T09:04:26.050Z,16.57
2018-03-08T09:06:53.586Z,17.40
2018-03-08T09:09:21.117Z,17.07
2018-03-08T09:11:48.643Z,16.47
2018-03-08T09:14:16.178Z,16.10
2018-03-08T09:16:43.721Z,15.47
2018-03-08T09:19:11.246Z,15.60
2018-03-08T09:21:40.283Z,14.30
2018-03-08T09:24:07.797Z,13.67
2018-03-08T09:26:36.117Z,14.57
2018-03-08T09:29:03.632Z,13.70
2018-03-08T09:31:31.925Z,12.07
2018-03-08T09:34:00.210Z,10.67
2018-03-08T09:36:27.751Z,9.50
2018-03-08T09:38:56.034Z,10.60
2018-03-08T09:41:23.570Z,9.97
2018-03-08T09:43:51.080Z,10.73
2018-03-08T09:46:19.381Z,9.90
2018-03-08T09:48:46.904Z,10.70
2018-03-08T09:51:14.436Z,11.03
2018-03-08T09:53:42.725Z,9.47
2018-03-08T09:56:10.258Z,9.90
2018-03-08T09:58:38.548Z,10.10
2018-03-08T10:01:06.844Z,10.70
2018-03-08T10:03:34.376Z,9.83
2018-03-08T10:06:02.694Z,9.07
2018-03-08T10:08:30.221Z,9.10
2018-03-08T10:10:57.783Z,8.93
2018-03-08T10:13:25.298Z,8.53
2018-03-08T10:15:52.836Z,8.43
2018-03-08T10:18:20.349Z,8.27
2018-03-08T10:20:49.578Z,7.93
2018-03-08T10:23:17.872Z,7.67
2018-03-08T10:25:45.412Z,7.47
2018-03-08T10:28:12.925Z,6.67
2018-03-08T10:30:40.458Z,6.83
2018-03-08T10:33:07.968Z,6.53
2018-03-08T10:35:41.534Z,6.57
2018-03-08T10:38:09.062Z,7.30
2018-03-08T10:43:08.694Z,6.40
2018-03-08T10:45:36.235Z,6.23
2018-03-08T10:48:03.744Z,6.70
2018-03-08T10:50:32.046Z,6.20
2018-03-08T10:52:59.555Z,6.10
2018-03-08T10:55:27.080Z,5.57
2018-03-08T10:57:54.601Z,5.20
2018-03-08T11:00:27.720Z,5.50
2018-03-08T11:02:58.155Z,4.70
2018-03-08T11:05:25.704Z,5.17
2018-03-08T11:07:53.217Z,5.20
2018-03-08T11:10:20.779Z,5.43
2018-03-08T11:12:49.127Z,4.70
2018-03-08T11:15:16.636Z,5.00
2018-03-08T11:17:44.204Z,4.67
2018-03-08T11:20:11.721Z,4.37
2018-03-08T11:22:40.025Z,4.27
2018-03-08T11:25:07.553Z,4.60
2018-03-08T11:27:35.848Z,4.57
2018-03-08T11:30:03.376Z,3.70
2018-03-08T11:32:30.901Z,4.03
2018-03-08T11:34:58.426Z,3.67
2018-03-08T11:37:25.961Z,3.80
2018-03-08T11:39:54.241Z,3.70
2018-03-08T11:42:22.558Z,3.70
2018-03-08T11:44:50.065Z,3.77
2018-03-08T11:47:17.607Z,3.40
2018-03-08T11:49:45.120Z,3.50
2018-03-08T11:52:14.341Z,3.90
2018-03-08T11:54:40.252Z,3.23
2018-03-08T11:57:07.762Z,3.90
2018-03-08T11:59:35.295Z,3.77
2018-03-08T12:02:02.833Z,3.70
2018-03-08T12:04:30.360Z,3.37
2018-03-08T12:06:57.898Z,3.47
2018-03-08T12:09:26.205Z,3.93
2018-03-08T12:11:53.797Z,3.10
2018-03-08T12:14:21.320Z,3.30
2018-03-08T12:16:48.856Z,3.50
2018-03-08T12:19:16.386Z,3.67
2018-03-08T12:21:43.944Z,3.00
2018-03-08T12:24:11.461Z,3.27
2018-03-08T12:26:39.005Z,3.40
2018-03-08T12:29:06.536Z,3.70
2018-03-08T12:31:34.114Z,3.67
2018-03-08T12:34:01.634Z,3.77
2018-03-08T12:36:31.073Z,3.80
2018-03-08T12:38:59.345Z,3.73
2018-03-08T12:41:27.690Z,2.97
2018-03-08T12:43:55.238Z,3.33
2018-03-08T12:46:22.785Z,3.20
2018-03-08T12:48:50.343Z,3.70
2018-03-08T12:51:17.851Z,5.33
2018-03-08T12:53:46.173Z,4.00
2018-03-08T12:56:13.691Z,6.13
2018-03-08T12:58:41.228Z,5.70
2018-03-08T13:01:08.746Z,3.87
2018-03-08T13:03:36.290Z,3.83
2018-03-08T13:06:03.830Z,3.90
2018-03-08T13:08:31.368Z,4.20
2018-03-08T13:10:59.645Z,3.97
2018-03-08T13:13:27.956Z,4.10
2018-03-08T13:15:55.502Z,4.33
2018-03-08T13:18:23.032Z,3.73
2018-03-08T13:20:51.325Z,3.57
2018-03-08T13:23:19.647Z,4.40
2018-03-08T13:25:47.188Z,3.97
2018-03-08T13:28:14.700Z,4.20
2018-03-08T13:30:42.214Z,4.37
2018-03-08T13:33:09.753Z,4.20
2018-03-08T13:35:37.270Z,4.17
2018-03-08T13:38:04.797Z,4.10
2018-03-08T13:40:32.312Z,4.10
2018-03-08T13:42:59.853Z,4.43
2018-03-08T13:45:28.129Z,4.83
2018-03-08T13:47:56.434Z,3.70
2018-03-08T13:50:23.962Z,3.90
2018-03-08T13:52:51.492Z,3.40
2018-03-08T13:55:19.031Z,3.50
2018-03-08T13:57:46.562Z,3.73
2018-03-08T14:00:14.085Z,3.60
2018-03-08T14:02:41.626Z,3.60
2018-03-08T14:05:09.140Z,3.60
2018-03-08T14:07:36.666Z,3.30
2018-03-08T14:10:04.971Z,3.40
2018-03-08T14:12:32.520Z,6.27
2018-03-08T14:15:00.046Z,3.60
2018-03-08T14:17:27.586Z,7.90
2018-03-08T14:19:55.109Z,3.13
2018-03-08T14:22:22.665Z,2.73
2018-03-08T14:24:50.181Z,5.43
2018-03-08T14:27:17.714Z,4.87
2018-03-08T14:29:45.246Z,3.10
2018-03-08T14:32:12.773Z,3.00
2018-03-08T14:34:41.069Z,3.10
2018-03-08T14:39:41.526Z,2.67
2018-03-08T14:42:09.105Z,3.00
2018-03-08T14:44:36.620Z,2.67
2018-03-08T14:47:04.135Z,2.50
2018-03-08T14:49:31.666Z,2.60
2018-03-08T14:51:59.189Z,3.10
2018-03-08T14:54:26.725Z,2.70
2018-03-08T14:56:54.237Z,2.30
2018-03-08T14:59:21.778Z,2.30
2018-03-08T15:01:49.339Z,2.07
2018-03-08T15:04:16.877Z,2.67
2018-03-08T15:06:44.409Z,2.23
2018-03-08T15:09:11.967Z,2.40
2018-03-08T15:11:39.483Z,2.10
2018-03-08T15:14:07.053Z,2.00
2018-03-08T15:16:34.617Z,2.47
2018-03-08T15:19:02.126Z,2.77
2018-03-08T15:21:29.645Z,2.73
2018-03-08T15:23:57.190Z,3.20
2018-03-08T15:26:24.731Z,2.73
2018-03-08T15:28:52.309Z,2.60
2018-03-08T15:31:19.816Z,1.97
2018-03-08T15:33:48.113Z,1.70
2018-03-08T15:36:15.638Z,2.30
2018-03-08T15:38:43.932Z,2.13
2018-03-08T15:41:11.433Z,1.97
2018-03-08T15:43:38.956Z,2.80
2018-03-08T15:46:06.465Z,2.07
2018-03-08T15:48:33.984Z,1.90
2018-03-08T15:51:01.492Z,1.83
2018-03-08T15:53:29.021Z,2.00
2018-03-08T15:55:56.544Z,1.97
2018-03-08T15:58:24.078Z,1.73
2018-03-08T16:00:52.387Z,2.60
2018-03-08T16:03:19.918Z,2.07
2018-03-08T16:05:48.198Z,2.07
2018-03-08T16:11:12.197Z,2.17
2018-03-08T16:13:39.729Z,2.07
2018-03-08T16:16:08.075Z,2.30
2018-03-08T16:18:35.608Z,2.23
2018-03-08T16:21:03.132Z,2.20
2018-03-08T16:23:31.684Z,2.20
2018-03-08T16:25:59.226Z,2.60
2018-03-08T16:28:28.474Z,4.43
2018-03-08T16:30:56.750Z,3.07
2018-03-08T16:33:27.188Z,2.67
2018-03-08T16:35:54.795Z,2.20
2018-03-08T16:38:22.221Z,2.57
2018-03-08T16:40:52.201Z,2.57
2018-03-08T16:43:21.175Z,2.50
2018-03-08T16:45:49.305Z,2.40
2018-03-08T16:48:18.402Z,2.30
2018-03-08T16:50:45.928Z,2.23
2018-03-08T16:53:14.876Z,2.80
2018-03-08T16:55:42.463Z,3.30
2018-03-08T16:58:11.511Z,2.50
2018-03-08T17:00:39.571Z,2.80
2018-03-08T17:03:08.217Z,2.97
2018-03-08T17:05:37.880Z,3.20
2018-03-08T17:08:06.778Z,3.60
2018-03-08T17:10:36.457Z,3.73
2018-03-08T17:13:04.359Z,4.40
2018-03-08T17:15:32.799Z,4.00
2018-03-08T17:18:00.708Z,2.77
2018-03-08T17:20:29.022Z,3.57
2018-03-08T17:22:57.430Z,3.10
2018-03-08T17:25:25.188Z,2.40
2018-03-08T17:27:52.832Z,2.30
2018-03-08T17:30:20.985Z,2.00
2018-03-08T17:32:48.613Z,2.40
2018-03-08T17:35:16.942Z,2.30
2018-03-08T17:37:44.464Z,5.43
2018-03-08T17:40:12.030Z,3.30
2018-03-08T17:42:40.300Z,2.80
2018-03-08T17:45:07.827Z,2.83
2018-03-08T17:47:35.342Z,2.37
2018-03-08T17:50:02.861Z,3.10
2018-03-08T17:52:30.368Z,3.10
2018-03-08T17:54:57.897Z,3.50
2018-03-08T17:57:26.174Z,3.60
2018-03-08T17:59:53.743Z,3.73
2018-03-08T18:02:21.236Z,4.07
2018-03-08T18:04:48.761Z,3.73
2018-03-08T18:07:16.265Z,4.33
2018-03-08T18:09:43.810Z,2.10
2018-03-08T18:12:11.308Z,1.90
2018-03-08T18:14:38.837Z,1.70
2018-03-08T18:17:06.471Z,1.00
2018-03-08T18:19:34.018Z,1.20
2018-03-08T18:22:01.526Z,1.20
2018-03-08T18:24:29.028Z,1.10
2018-03-08T18:26:56.553Z,1.40
2018-03-08T18:29:24.352Z,1.70
2018-03-08T18:31:52.210Z,1.07
2018-03-08T18:34:19.932Z,1.17
2018-03-08T18:36:47.695Z,1.10
2018-03-08T18:39:16.455Z,1.10
2018-03-08T18:41:44.286Z,1.17
2018-03-08T18:44:12.067Z,0.70
2018-03-08T18:46:40.081Z,1.00
2018-03-08T18:49:08.369Z,1.10
2018-03-08T18:51:35.988Z,1.00
2018-03-08T18:54:04.264Z,1.20
2018-03-08T18:56:31.791Z,1.20
2018-03-08T18:59:00.056Z,1.13
2018-03-08T19:01:27.609Z,1.23
2018-03-08T19:03:55.880Z,1.40
2018-03-08T19:06:23.401Z,1.67
2018-03-08T19:08:50.917Z,1.60
2018-03-08T19:11:18.449Z,1.43
2018-03-08T19:13:45.956Z,2.20
2018-03-08T19:16:13.496Z,2.40
2018-03-08T19:18:41.002Z,3.00
2018-03-08T19:21:08.542Z,4.13
2018-03-08T19:23:36.104Z,3.17
2018-03-08T19:26:03.628Z,4.67
2018-03-08T19:28:31.139Z,4.80
2018-03-08T19:30:58.666Z,3.50
2018-03-08T19:33:26.177Z,3.10
2018-03-08T19:35:54.460Z,4.20
2018-03-08T19:38:23.038Z,3.60
2018-03-08T19:40:51.325Z,4.00
2018-03-08T19:43:19.599Z,4.77
2018-03-08T19:45:47.140Z,4.87
2018-03-08T19:48:14.765Z,4.40
2018-03-08T19:50:42.327Z,4.70
2018-03-08T19:53:09.834Z,5.23
2018-03-08T19:55:38.128Z,5.40
2018-03-08T19:58:05.663Z,5.30
2018-03-08T20:00:33.962Z,5.80
2018-03-08T20:03:01.563Z,6.03
2018-03-08T20:05:29.244Z,6.37
2018-03-08T20:07:57.557Z,6.53
2018-03-08T20:10:25.081Z,6.40
2018-03-08T20:12:52.601Z,6.23
2018-03-08T20:15:20.133Z,6.20
2018-03-08T20:17:47.654Z,5.80
2018-03-08T20:20:15.180Z,5.70
2018-03-08T20:22:42.698Z,6.00
2018-03-08T20:25:10.210Z,5.93
2018-03-08T20:27:37.757Z,5.83
2018-03-08T20:30:05.264Z,5.17
2018-03-08T20:32:33.567Z,5.00
2018-03-08T20:35:01.083Z,4.47
2018-03-08T20:37:29.475Z,4.00
2018-03-08T20:39:57.020Z,3.93
2018-03-08T20:42:25.313Z,4.10
2018-03-08T20:44:52.822Z,3.90
2018-03-08T20:47:20.355Z,3.67
2018-03-08T20:49:47.867Z,3.40
2018-03-08T20:52:15.398Z,3.33
2018-03-08T20:54:42.901Z,3.00
2018-03-08T20:57:11.212Z,3.20
2018-03-08T20:59:38.711Z,3.07
2018-03-08T21:02:06.253Z,3.43
2018-03-08T21:04:33.765Z,3.77
2018-03-08T21:07:01.275Z,3.70
2018-03-08T21:09:28.771Z,4.20
2018-03-08T21:11:56.297Z,4.20
2018-03-08T21:14:23.800Z,4.30
2018-03-08T21:16:51.328Z,5.10
2018-03-08T21:19:18.832Z,5.00
2018-03-08T21:21:46.351Z,5.40
2018-03-08T21:24:14.615Z,6.03
2018-03-08T21:26:42.913Z,5.20
2018-03-08T21:29:10.549Z,6.03
2018-03-08T21:31:38.129Z,5.63
2018-03-08T21:34:05.679Z,6.00
2018-03-08T21:36:33.177Z,6.10
2018-03-08T21:39:00.700Z,5.87
2018-03-08T21:41:28.230Z,5.70
2018-03-08T21:43:55.780Z,6.13
2018-03-08T21:46:23.342Z,5.37
2018-03-08T21:48:50.840Z,5.83
2018-03-08T21:51:18.368Z,6.10
2018-03-08T21:53:45.876Z,5.50
2018-03-08T21:56:13.393Z,5.70
2018-03-08T21:58:41.660Z,5.80
2018-03-08T22:01:09.961Z,5.80
2018-03-08T22:03:37.466Z,5.60
2018-03-08T22:06:04.985Z,5.97
2018-03-08T22:08:32.489Z,5.87
2018-03-08T22:11:00.017Z,5.97
2018-03-08T22:13:27.541Z,5.37
2018-03-08T22:15:55.053Z,6.67
2018-03-08T22:18:22.582Z,7.50
2018-03-08T22:20:50.081Z,6.83
2018-03-08T22:23:17.608Z,7.50
2018-03-08T22:25:45.117Z,9.87
2018-03-08T22:28:12.664Z,8.03
2018-03-08T22:30:40.190Z,8.53
2018-03-08T22:33:07.793Z,8.10
2018-03-08T22:35:36.236Z,8.37
2018-03-08T22:38:03.769Z,8.00
2018-03-08T22:43:04.289Z,8.57
2018-03-08T22:45:32.557Z,8.07
2018-03-08T22:48:00.865Z,8.40
2018-03-08T22:50:28.373Z,8.13
2018-03-08T22:52:55.904Z,9.43
2018-03-08T22:55:23.414Z,8.70
2018-03-08T22:57:52.295Z,8.30
2018-03-08T23:00:19.815Z,10.00
2018-03-08T23:02:47.401Z,9.07
2018-03-08T23:05:15.681Z,8.53
2018-03-08T23:07:43.204Z,9.13
2018-03-08T23:10:10.714Z,9.40
2018-03-08T23:12:38.246Z,9.50
2018-03-08T23:15:05.761Z,8.23
2018-03-08T23:17:33.284Z,9.40
2018-03-08T23:20:00.787Z,8.30
2018-03-08T23:22:28.315Z,8.57
2018-03-08T23:24:55.820Z,8.03
2018-03-08T23:27:24.144Z,8.30
2018-03-08T23:29:51.714Z,7.67
2018-03-08T23:32:19.252Z,7.63
2018-03-08T23:34:46.774Z,7.10
2018-03-08T23:37:14.282Z,7.23
2018-03-08T23:39:41.825Z,6.93
2018-03-08T23:42:09.337Z,6.80
2018-03-08T23:44:36.864Z,6.30
2018-03-08T23:47:04.377Z,6.83
2018-03-08T23:49:32.684Z,6.83
2018-03-08T23:52:00.197Z,7.07
2018-03-08T23:54:27.720Z,6.40
2018-03-08T23:56:55.221Z,6.03
2018-03-08T23:59:22.756Z,6.50
